Time;durP1;ratioP1;P1;durP2;ratioP2;P2;SDS_P1;SDS_P2;PMS_P1;PMS_P2;Temp;Humidity;BMP_temperature;BMP_pressure;BME280_temperature;BME280_humidity;BME280_pressure;Samples;Min_cycle;Max_cycle;Signal;HPM_P1;HPM_P2
2023/06/15 00:00:11;;;;;;;;;;;;;;;-140.72;0.00;52167.66;6244221;23;19911;-71
2023/06/15 00:02:37;;;;;;;;;;;;;;;-140.72;0.00;52194.03;6243946;23;20252;-71
2023/06/15 00:05:03;;;;;;;;;;;;;;;-140.72;0.00;52210.28;6244083;23;19926;-71
2023/06/15 00:07:28;;;;;;;;;;;;;;;-140.72;0.00;52169.69;6244113;23;19923;-71
2023/06/15 00:09:54;;;;;;;;;;;;;;;-140.72;0.00;52218.38;6244601;23;19911;-71
2023/06/15 00:12:19;;;;;;;;;;;;;;;-140.72;0.00;52218.38;6244088;23;19911;-71
2023/06/15 00:14:45;;;;;;;;;;;;;;;-140.72;0.00;52208.25;6244369;23;19911;-69
2023/06/15 00:17:11;;;;;;;;;;;;;;;-140.72;0.00;52192.00;6244264;23;19915;-70
2023/06/15 00:19:36;;;;;;;;;;;;;;;-140.72;0.00;52202.16;6218179;23;20228;-71
2023/06/15 00:22:02;;;;;;;;;;;;;;;-140.72;0.00;52212.31;6248784;23;19915;-70
2023/06/15 00:24:27;;;;;;;;;;;;;;;-140.72;0.00;52204.19;6245879;23;19996;-70
2023/06/15 00:26:52;;;;;;;;;;;;;;;-140.72;0.00;52198.09;6246149;23;19915;-70
2023/06/15 00:29:18;;;;;;;;;;;;;;;-140.72;0.00;52179.84;6245862;23;19919;-70
2023/06/15 00:31:43;;;;;;;;;;;;;;;-140.72;0.00;52171.72;6245788;23;19977;-70
2023/06/15 00:34:08;;;;;;;;;;;;;;;-140.72;0.00;52175.78;6245285;23;20323;-69
2023/06/15 00:36:36;;;;;;;;;;;;;;;-140.72;0.00;52212.31;6217146;23;19919;-70
2023/06/15 00:39:01;;;;;;;;;;;;;;;-140.72;0.00;52212.31;6244695;23;19911;-70
2023/06/15 00:41:28;;;;;;;;;;;;;;;-140.72;0.00;52208.25;6245607;23;19954;-70
2023/06/15 00:43:55;;;;;;;;;;;;;;;-140.72;0.00;52204.19;6245152;23;19916;-69
2023/06/15 00:46:22;;;;;;;;;;;;;;;-140.72;0.00;52208.25;6245111;23;19962;-69
2023/06/15 00:48:47;;;;;;;;;;;;;;;-140.72;0.00;52234.63;6244190;22;19957;-70
2023/06/15 00:51:13;;;;;;;;;;;;;;;-140.72;0.00;52198.09;6244393;23;20658;-69
2023/06/15 00:53:38;;;;;;;;;;;;;;;-140.72;0.00;52187.97;6244420;23;19915;-68
2023/06/15 00:56:06;;;;;;;;;;;;;;;-140.72;0.00;52171.72;6244506;23;20559;-69
2023/06/15 00:58:32;;;;;;;;;;;;;;;-140.72;0.00;52189.97;6245041;23;20173;-69
2023/06/15 01:00:57;;;;;;;;;;;;;;;-140.72;0.00;52196.06;6244144;23;20019;-69
2023/06/15 01:03:22;;;;;;;;;;;;;;;-140.72;0.00;52212.31;6243874;23;20367;-69
2023/06/15 01:05:49;;;;;;;;;;;;;;;-140.72;0.00;52236.66;6244263;23;20338;-70
2023/06/15 01:08:15;;;;;;;;;;;;;;;-140.72;0.00;52198.09;6244204;23;19911;-70
2023/06/15 01:10:41;;;;;;;;;;;;;;;-140.72;0.00;52210.28;6244411;23;19922;-70
2023/06/15 01:13:10;;;;;;;;;;;;;;;-140.72;0.00;52218.38;6244372;23;19916;-70
2023/06/15 01:15:36;;;;;;;;;;;;;;;-140.72;0.00;52230.56;6244505;23;20314;-70
2023/06/15 01:18:02;;;;;;;;;;;;;;;-140.72;0.00;52196.06;6243912;23;19912;-70
2023/06/15 01:20:40;;;;;;;;;;;;;;;-140.72;0.00;52210.28;6243992;23;20327;-70
2023/06/15 01:23:22;;;;;;;;;;;;;;;-140.72;0.00;52212.31;6244012;23;20016;-70
2023/06/15 01:25:49;;;;;;;;;;;;;;;-140.72;0.00;52281.28;6244756;23;19911;-70
2023/06/15 01:28:20;;;;;;;;;;;;;;;-140.72;0.00;52230.56;6244216;23;20332;-70
2023/06/15 01:30:47;;;;;;;;;;;;;;;-140.72;0.00;52198.09;6244681;23;20330;-70
2023/06/15 01:33:12;;;;;;;;;;;;;;;-140.72;0.00;52210.28;6243583;23;20245;-70
2023/06/15 01:35:38;;;;;;;;;;;;;;;-140.72;0.00;52218.38;6244182;23;19912;-69
2023/06/15 01:38:15;;;;;;;;;;;;;;;-140.72;0.00;52187.97;6244408;23;19915;-71
2023/06/15 01:40:42;;;;;;;;;;;;;;;-140.72;0.00;52252.88;6244375;23;20266;-71
2023/06/15 01:43:08;;;;;;;;;;;;;;;-140.72;0.00;52236.66;6243726;23;19911;-70
2023/06/15 01:45:35;;;;;;;;;;;;;;;-140.72;0.00;52196.06;6243529;23;20044;-70
2023/06/15 01:48:01;;;;;;;;;;;;;;;-140.72;0.00;52224.47;6245419;22;19915;-70
2023/06/15 01:50:26;;;;;;;;;;;;;;;-140.72;0.00;52216.34;6246121;23;19918;-71
2023/06/15 01:52:52;;;;;;;;;;;;;;;-140.72;0.00;52218.38;6246552;23;19912;-70
2023/06/15 01:55:17;;;;;;;;;;;;;;;-140.72;0.00;52248.81;6245599;23;19983;-69
2023/06/15 01:57:42;;;;;;;;;;;;;;;-140.72;0.00;52234.63;6245809;23;19916;-70
2023/06/15 02:00:10;;;;;;;;;;;;;;;-140.72;0.00;52210.28;6245617;23;19911;-69
2023/06/15 02:02:36;;;;;;;;;;;;;;;-140.72;0.00;52212.31;6246987;23;19952;-70
2023/06/15 02:05:02;;;;;;;;;;;;;;;-140.72;0.00;52192.00;6246588;23;19915;-70
2023/06/15 02:07:27;;;;;;;;;;;;;;;-140.72;0.00;52252.88;6247720;23;19966;-69
2023/06/15 02:09:53;;;;;;;;;;;;;;;-140.72;0.00;52224.47;6247712;23;19912;-69
2023/06/15 02:12:18;;;;;;;;;;;;;;;-140.72;0.00;52226.50;6246864;23;19918;-69
2023/06/15 02:14:44;;;;;;;;;;;;;;;-140.72;0.00;52261.00;6246644;23;19988;-69
2023/06/15 02:17:09;;;;;;;;;;;;;;;-140.72;0.00;52258.97;6249217;23;19935;-68
2023/06/15 02:19:35;;;;;;;;;;;;;;;-140.72;0.00;52234.63;6248373;23;19915;-70
2023/06/15 02:22:10;;;;;;;;;;;;;;;-140.72;0.00;52204.19;6248289;23;20420;-69
2023/06/15 02:24:38;;;;;;;;;;;;;;;-140.72;0.00;52269.13;6246060;23;19916;-70
2023/06/15 02:27:03;;;;;;;;;;;;;;;-140.72;0.00;52258.97;6246344;23;20009;-70
2023/06/15 02:29:29;;;;;;;;;;;;;;;-140.72;0.00;52238.69;6245274;23;19939;-70
2023/06/15 02:32:01;;;;;;;;;;;;;;;-140.72;0.00;52248.81;6243917;23;19915;-70
2023/06/15 02:34:26;;;;;;;;;;;;;;;-140.72;0.00;52256.94;6244213;23;19927;-70
2023/06/15 02:36:55;;;;;;;;;;;;;;;-140.72;0.00;52210.28;6245952;23;19993;-69
2023/06/15 02:39:21;;;;;;;;;;;;;;;-140.72;0.00;52256.94;6245767;23;19919;-69
2023/06/15 02:41:48;;;;;;;;;;;;;;;-140.72;0.00;52240.72;6219001;23;19927;-70
2023/06/15 02:44:17;;;;;;;;;;;;;;;-140.72;0.00;52236.66;6244497;23;19912;-70
2023/06/15 02:46:43;;;;;;;;;;;;;;;-140.72;0.00;52248.81;6245087;23;19994;-70
2023/06/15 02:49:08;;;;;;;;;;;;;;;-140.72;0.00;52228.53;6245286;22;19946;-70
2023/06/15 02:51:33;;;;;;;;;;;;;;;-140.72;0.00;52261.00;6245107;23;19939;-70
2023/06/15 02:54:02;;;;;;;;;;;;;;;-140.72;0.00;52269.13;6245264;23;19912;-70
2023/06/15 02:56:29;;;;;;;;;;;;;;;-140.72;0.00;52271.16;6245651;23;19962;-69
2023/06/15 02:58:54;;;;;;;;;;;;;;;-140.72;0.00;52240.72;6245701;23;19919;-69
2023/06/15 03:01:23;;;;;;;;;;;;;;;-140.72;0.00;52287.38;6246025;23;19912;-69
2023/06/15 03:03:49;;;;;;;;;;;;;;;-140.72;6.84;52244.78;6245130;23;19935;-69
2023/06/15 03:06:18;;;;;;;;;;;;;;;-140.72;26.33;52271.16;6216890;23;20243;-70
2023/06/15 03:08:44;;;;;;;;;;;;;;;-140.72;39.91;52273.19;6242549;23;19915;-70
2023/06/15 03:11:10;;;;;;;;;;;;;;;-140.72;47.88;52246.78;6242566;23;20223;-69
2023/06/15 03:13:35;;;;;;;;;;;;;;;-140.72;47.83;52252.88;6241317;23;19962;-70
2023/06/15 03:16:01;;;;;;;;;;;;;;;-140.72;47.61;52269.13;6244037;23;19981;-70
2023/06/15 03:18:30;;;;;;;;;;;;;;;-140.72;42.61;52305.63;6216264;23;19954;-69
2023/06/15 03:20:57;;;;;;;;;;;;;;;-140.72;51.58;52297.53;6243270;23;19916;-70
2023/06/15 03:23:22;;;;;;;;;;;;;;;-140.72;59.83;52307.66;6242707;23;19911;-70
2023/06/15 03:25:49;;;;;;;;;;;;;;;-140.72;69.40;52265.06;6243066;23;20343;-70
2023/06/15 03:28:15;;;;;;;;;;;;;;;-140.72;55.07;52242.75;6216408;23;19916;-70
2023/06/15 03:30:46;;;;;;;;;;;;;;;-140.72;46.09;52240.72;6242376;23;19911;-70
2023/06/15 03:33:13;;;;;;;;;;;;;;;-140.72;40.47;52269.13;6216856;23;19919;-70
2023/06/15 03:35:38;;;;;;;;;;;;;;;-140.72;65.81;52281.28;6242247;23;19934;-70
2023/06/15 03:38:03;;;;;;;;;;;;;;;-140.72;62.26;52240.72;6214485;23;19990;-70
2023/06/15 03:40:29;;;;;;;;;;;;;;;-140.72;58.67;52248.81;6241405;23;20278;-70
2023/06/15 03:42:54;;;;;;;;;;;;;;;-140.72;57.21;52250.84;6241917;23;19955;-70
2023/06/15 03:45:19;;;;;;;;;;;;;;;-140.72;44.23;52265.06;6243762;23;20332;-70
2023/06/15 03:47:46;;;;;;;;;;;;;;;-140.72;63.29;52252.88;6243388;23;20378;-70
2023/06/15 03:50:11;;;;;;;;;;;;;;;-140.72;64.88;52267.09;6243541;22;19990;-70
2023/06/15 03:52:36;;;;;;;;;;;;;;;-140.72;58.35;52269.13;6242386;23;19939;-70
2023/06/15 03:55:02;;;;;;;;;;;;;;;-140.72;64.05;52281.28;6244287;23;20332;-70
2023/06/15 03:57:27;;;;;;;;;;;;;;;-140.72;59.16;52248.81;6242934;23;19970;-69
2023/06/15 03:59:52;;;;;;;;;;;;;;;-140.72;63.39;52265.06;6242428;23;19995;-70
2023/06/15 04:02:18;;;;;;;;;;;;;;;-140.72;55.80;52254.91;6244513;23;19923;-70
2023/06/15 04:04:43;;;;;;;;;;;;;;;-140.72;73.57;52275.19;6242813;23;19918;-69
2023/06/15 04:07:09;;;;;;;;;;;;;;;-140.72;75.68;52252.88;6244327;23;19912;-69
2023/06/15 04:09:34;;;;;;;;;;;;;;;-140.72;72.80;52252.88;6242766;23;19982;-70
2023/06/15 04:11:59;;;;;;;;;;;;;;;-140.72;71.33;52271.16;6243503;23;19919;-70
2023/06/15 04:14:25;;;;;;;;;;;;;;;-140.72;67.06;52204.19;6242505;23;19919;-73
2023/06/15 04:16:50;;;;;;;;;;;;;;;-140.72;66.53;52275.19;6244038;23;19912;-74
2023/06/15 04:19:15;;;;;;;;;;;;;;;-140.72;65.53;52269.13;6243811;23;19920;-75
2023/06/15 04:21:40;;;;;;;;;;;;;;;-140.72;68.38;52265.06;6246346;23;19912;-76
2023/06/15 04:24:06;;;;;;;;;;;;;;;-140.72;69.17;52244.78;6244684;23;19991;-77
2023/06/15 04:26:31;;;;;;;;;;;;;;;-140.72;63.14;52248.81;6245984;23;19911;-77
2023/06/15 04:29:00;;;;;;;;;;;;;;;-140.72;51.75;52248.81;6217803;23;19918;-77
2023/06/15 04:31:25;;;;;;;;;;;;;;;-140.72;66.05;52261.00;6245304;23;20170;-77
2023/06/15 04:33:58;;;;;;;;;;;;;;;-140.72;62.33;52244.78;6244033;23;20375;-77
2023/06/15 04:36:24;;;;;;;;;;;;;;;-140.72;75.55;52230.56;6243034;23;19915;-76
2023/06/15 04:38:50;;;;;;;;;;;;;;;-140.72;96.44;52254.91;6215870;23;20110;-74
2023/06/15 04:41:22;;;;;;;;;;;;;;;-140.72;92.68;52269.13;6241587;23;20050;-75
2023/06/15 04:43:47;;;;;;;;;;;;;;;-140.72;99.52;52232.59;6243741;23;19912;-74
2023/06/15 04:46:14;;;;;;;;;;;;;;;-140.72;100.00;52267.09;6241108;23;19916;-73
2023/06/15 04:48:43;;;;;;;;;;;;;;;-140.72;100.00;52240.72;6242400;22;20288;-76
2023/06/15 04:51:12;;;;;;;;;;;;;;;-140.72;100.00;52238.69;6244091;23;19990;-76
2023/06/15 04:53:38;;;;;;;;;;;;;;;-140.72;98.59;52202.16;6216891;23;19970;-75
2023/06/15 04:56:03;;;;;;;;;;;;;;;-140.72;99.40;52269.13;6243694;23;19911;-75
2023/06/15 04:58:28;;;;;;;;;;;;;;;-140.72;100.00;52263.03;6242684;23;19923;-75
2023/06/15 05:00:54;;;;;;;;;;;;;;;-140.72;100.00;52228.53;6213429;23;19911;-74
2023/06/15 05:03:19;;;;;;;;;;;;;;;-140.72;100.00;52238.69;6215454;23;20276;-74
2023/06/15 05:05:44;;;;;;;;;;;;;;;-140.72;100.00;52261.00;6215256;23;20363;-75
2023/06/15 05:08:12;;;;;;;;;;;;;;;-140.72;100.00;52224.47;6240567;23;19994;-72
2023/06/15 05:10:37;;;;;;;;;;;;;;;-140.72;100.00;52226.50;6241274;23;19974;-72
2023/06/15 05:13:03;;;;;;;;;;;;;;;-140.72;100.00;52240.72;6241329;23;20308;-72
2023/06/15 05:15:28;;;;;;;;;;;;;;;-140.72;100.00;52256.94;6241160;23;19911;-71
2023/06/15 05:17:53;;;;;;;;;;;;;;;-140.72;100.00;52248.81;6240699;23;20316;-71
2023/06/15 05:20:19;;;;;;;;;;;;;;;-140.72;100.00;52228.53;6241029;23;19923;-71
2023/06/15 05:22:44;;;;;;;;;;;;;;;-140.72;100.00;52244.78;6243553;23;19950;-71
2023/06/15 05:25:09;;;;;;;;;;;;;;;-140.72;100.00;52240.72;6241673;23;19919;-71
2023/06/15 05:27:35;;;;;;;;;;;;;;;-140.72;100.00;52222.44;6216257;23;19993;-72
2023/06/15 05:30:00;;;;;;;;;;;;;;;-140.72;100.00;52208.25;6215880;23;19915;-71
2023/06/15 05:32:26;;;;;;;;;;;;;;;-140.72;100.00;52252.88;6216300;23;19989;-71
2023/06/15 05:34:51;;;;;;;;;;;;;;;-140.72;100.00;52234.63;6242720;23;19973;-71
2023/06/15 05:37:16;;;;;;;;;;;;;;;-140.72;100.00;52214.34;6242770;23;19966;-71
2023/06/15 05:39:41;;;;;;;;;;;;;;;-140.72;100.00;52238.69;6243545;23;19935;-71
2023/06/15 05:42:07;;;;;;;;;;;;;;;-140.72;100.00;52220.41;6246212;23;19984;-74
2023/06/15 05:44:32;;;;;;;;;;;;;;;-140.72;100.00;52200.13;6245212;23;20049;-71
2023/06/15 05:46:58;;;;;;;;;;;;;;;-140.72;100.00;52220.41;6243654;23;20256;-71
2023/06/15 05:49:23;;;;;;;;;;;;;;;-140.72;100.00;52240.72;6245435;22;20341;-72
2023/06/15 05:51:48;;;;;;;;;;;;;;;-140.72;100.00;52248.81;6244966;23;19954;-72
2023/06/15 05:54:26;;;;;;;;;;;;;;;-140.72;100.00;52206.22;6245123;23;19990;-72
2023/06/15 05:56:51;;;;;;;;;;;;;;;-140.72;94.79;52177.81;6218173;23;19911;-72
2023/06/15 05:59:35;;;;;;;;;;;;;;;-140.72;91.82;52216.34;6247412;23;19912;-73
2023/06/15 06:02:01;;;;;;;;;;;;;;;-140.72;69.31;52192.00;6249554;23;19939;-72
2023/06/15 06:04:26;;;;;;;;;;;;;;;-140.72;83.22;52200.13;6250082;23;19911;-74
2023/06/15 06:06:51;;;;;;;;;;;;;;;-140.72;87.33;52161.56;6251584;23;19973;-72
2023/06/15 06:09:18;;;;;;;;;;;;;;;-140.72;75.75;52216.34;6249417;23;19912;-72
2023/06/15 06:11:46;;;;;;;;;;;;;;;-140.72;72.15;52196.06;6219616;23;20003;-74
2023/06/15 06:14:20;;;;;;;;;;;;;;;-140.72;68.45;52163.59;6246609;23;19939;-72
2023/06/15 06:16:46;;;;;;;;;;;;;;;-140.72;67.85;52169.69;6219347;23;19951;-73
2023/06/15 06:19:11;;;;;;;;;;;;;;;-140.72;71.21;52187.97;6244589;23;19919;-71
2023/06/15 06:21:36;;;;;;;;;;;;;;;-140.72;68.87;52167.66;6243538;23;20292;-71
2023/06/15 06:24:02;;;;;;;;;;;;;;;-140.72;63.86;52147.38;6244417;23;20282;-74
2023/06/15 06:26:28;;;;;;;;;;;;;;;-140.72;59.56;52165.63;6245202;23;19961;-71
2023/06/15 06:28:53;;;;;;;;;;;;;;;-140.72;51.35;52165.63;6243630;23;19912;-71
2023/06/15 06:31:18;;;;;;;;;;;;;;;-140.72;45.73;52169.69;6242667;23;19942;-72
2023/06/15 06:33:43;;;;;;;;;;;;;;;-140.72;40.53;52175.78;6241585;23;19912;-73
2023/06/15 06:36:09;;;;;;;;;;;;;;;-140.72;23.13;52141.28;6242537;23;20224;-72
2023/06/15 06:38:34;;;;;;;;;;;;;;;-140.72;4.43;52145.34;6243904;23;19912;-72
2023/06/15 06:41:00;;;;;;;;;;;;;;;-140.72;0.00;52139.25;6242518;23;20010;-72
2023/06/15 06:43:25;;;;;;;;;;;;;;;-140.72;0.00;52135.19;6242175;23;20330;-73
2023/06/15 06:45:51;;;;;;;;;;;;;;;-140.72;0.00;52114.91;6215394;23;20025;-71
2023/06/15 06:48:16;;;;;;;;;;;;;;;-140.72;0.00;52147.38;6243213;22;19918;-71
2023/06/15 06:50:41;;;;;;;;;;;;;;;-140.72;0.00;52147.38;6244981;23;19919;-71
2023/06/15 06:53:07;;;;;;;;;;;;;;;-140.72;0.00;52112.88;6245171;23;19912;-71
2023/06/15 06:55:32;;;;;;;;;;;;;;;-140.72;0.00;52143.31;6245487;23;19921;-71
2023/06/15 06:58:00;;;;;;;;;;;;;;;-140.72;0.00;52135.19;6244094;23;19916;-71
2023/06/15 07:00:25;;;;;;;;;;;;;;;-140.72;0.00;52165.63;6244314;23;19912;-71
2023/06/15 07:02:50;;;;;;;;;;;;;;;-140.72;0.00;52129.13;6244345;23;20014;-71
2023/06/15 07:05:16;;;;;;;;;;;;;;;-140.72;0.00;52104.75;6242134;23;20188;-71
2023/06/15 07:07:41;;;;;;;;;;;;;;;-140.72;0.00;52145.34;6242207;23;20058;-72
2023/06/15 07:10:06;;;;;;;;;;;;;;;-140.72;0.00;52094.63;6241980;23;19912;-71
2023/06/15 07:12:32;;;;;;;;;;;;;;;-140.72;0.00;52096.66;6241674;23;20013;-71
2023/06/15 07:14:57;;;;;;;;;;;;;;;-140.72;0.00;52090.56;6242313;23;19961;-72
2023/06/15 07:17:22;;;;;;;;;;;;;;;-140.72;0.00;52108.81;6241585;23;19985;-71
2023/06/15 07:19:47;;;;;;;;;;;;;;;-140.72;0.00;52090.56;6243182;23;19916;-71
2023/06/15 07:22:12;;;;;;;;;;;;;;;-140.72;0.00;52082.44;6244599;23;19920;-71
2023/06/15 07:24:38;;;;;;;;;;;;;;;-140.72;0.00;52070.28;6245647;23;20018;-72
2023/06/15 07:27:03;;;;;;;;;;;;;;;-140.72;0.00;52074.34;6245895;23;20339;-71
2023/06/15 07:29:28;;;;;;;;;;;;;;;-140.72;0.00;52045.94;6244718;23;19912;-71
2023/06/15 07:31:53;;;;;;;;;;;;;;;-140.72;0.00;52076.34;6244876;23;19911;-71
2023/06/15 07:34:20;;;;;;;;;;;;;;;-140.72;0.00;52090.56;6244432;23;20392;-72
2023/06/15 07:36:45;;;;;;;;;;;;;;;-140.72;0.00;52054.03;6244150;23;20228;-71
2023/06/15 07:39:10;;;;;;;;;;;;;;;-140.72;0.00;52043.91;6244426;23;19939;-71
2023/06/15 07:41:36;;;;;;;;;;;;;;;-140.72;0.00;52078.38;6244564;23;19912;-72
2023/06/15 07:44:01;;;;;;;;;;;;;;;-140.72;0.00;52066.22;6243764;23;20019;-73
2023/06/15 07:46:27;;;;;;;;;;;;;;;-140.72;0.00;52062.16;6244281;23;19919;-73
2023/06/15 07:48:52;;;;;;;;;;;;;;;-140.72;0.00;52041.88;6243613;22;19927;-73
2023/06/15 07:51:17;;;;;;;;;;;;;;;-140.72;0.00;52047.97;6216803;23;20244;-73
2023/06/15 07:53:43;;;;;;;;;;;;;;;-140.72;0.00;51997.22;6244023;23;20328;-73
2023/06/15 07:56:08;;;;;;;;;;;;;;;-140.72;0.00;52041.88;6244077;23;20003;-73
2023/06/15 07:58:33;;;;;;;;;;;;;;;-140.72;0.00;52017.53;6217898;23;19918;-73
2023/06/15 08:00:58;;;;;;;;;;;;;;;-140.72;0.00;52003.31;6244341;23;19919;-73
2023/06/15 08:03:24;;;;;;;;;;;;;;;-140.72;0.00;51978.97;6244012;23;19915;-73
2023/06/15 08:05:49;;;;;;;;;;;;;;;-140.72;0.00;51997.22;6242947;23;20020;-73
2023/06/15 08:08:14;;;;;;;;;;;;;;;-140.72;0.00;51976.94;6242218;23;19916;-73
2023/06/15 08:10:39;;;;;;;;;;;;;;;-140.72;0.00;51956.66;6244249;23;19930;-73
2023/06/15 08:13:06;;;;;;;;;;;;;;;-140.72;0.00;51934.34;6243954;23;19923;-73
2023/06/15 08:15:32;;;;;;;;;;;;;;;-140.72;0.00;51952.59;6245310;23;19971;-73
2023/06/15 08:17:57;;;;;;;;;;;;;;;-140.72;0.00;51950.56;6216841;23;20006;-72
2023/06/15 08:20:22;;;;;;;;;;;;;;;-140.72;0.00;51985.06;6216590;23;19939;-73
2023/06/15 08:22:47;;;;;;;;;;;;;;;-140.72;0.00;51964.78;6244386;23;19912;-72
2023/06/15 08:25:12;;;;;;;;;;;;;;;-140.72;0.00;51912.03;6244129;23;19923;-73
2023/06/15 08:27:38;;;;;;;;;;;;;;;-140.72;0.00;51920.13;6244062;23;19918;-73
2023/06/15 08:30:04;;;;;;;;;;;;;;;-140.72;0.00;51922.16;6243705;23;19926;-72
2023/06/15 08:32:29;;;;;;;;;;;;;;;-140.72;0.00;51899.84;6243788;23;19923;-73
2023/06/15 08:34:55;;;;;;;;;;;;;;;-140.72;0.00;51907.97;6242996;23;19918;-72
2023/06/15 08:37:20;;;;;;;;;;;;;;;-140.72;0.00;51893.75;6242478;23;20006;-73
2023/06/15 08:39:45;;;;;;;;;;;;;;;-140.72;0.00;51912.03;6242202;23;20010;-72
2023/06/15 08:42:10;;;;;;;;;;;;;;;-140.72;0.00;51910.00;6242613;23;19912;-72
2023/06/15 08:44:36;;;;;;;;;;;;;;;-140.72;0.00;51883.63;6242295;23;19923;-73
2023/06/15 08:47:03;;;;;;;;;;;;;;;-140.72;0.00;51879.56;6242610;23;19911;-73
2023/06/15 08:49:31;;;;;;;;;;;;;;;-140.72;0.00;51857.25;6243097;22;19916;-73
2023/06/15 08:52:00;;;;;;;;;;;;;;;-140.72;0.00;51859.28;6243157;23;19966;-73
2023/06/15 08:54:32;;;;;;;;;;;;;;;-140.72;0.00;51885.66;6243614;23;19930;-73
2023/06/15 08:56:58;;;;;;;;;;;;;;;-140.72;0.00;51832.91;6244492;23;19915;-73
2023/06/15 08:59:24;;;;;;;;;;;;;;;-140.72;0.00;51855.22;6245312;23;19934;-73
2023/06/15 09:01:51;;;;;;;;;;;;;;;-140.72;0.00;51818.69;6217152;23;19977;-73
2023/06/15 09:04:17;;;;;;;;;;;;;;;-140.72;0.00;51822.75;6243740;23;19922;-73
2023/06/15 09:06:42;;;;;;;;;;;;;;;-140.72;0.00;51822.75;6245006;23;19950;-72
2023/06/15 09:09:09;;;;;;;;;;;;;;;-140.72;0.00;51765.94;6217264;23;19919;-73
2023/06/15 09:11:39;;;;;;;;;;;;;;;-140.72;0.00;51808.53;6246454;23;19912;-73
2023/06/15 09:14:09;;;;;;;;;;;;;;;-140.72;0.00;51804.50;6246273;23;19916;-73
2023/06/15 09:16:34;;;;;;;;;;;;;;;-140.72;0.00;51765.94;6246447;23;20354;-73
2023/06/15 09:18:59;;;;;;;;;;;;;;;-140.72;0.00;51782.16;6246251;23;19919;-71
2023/06/15 09:21:26;;;;;;;;;;;;;;;-140.72;0.00;51741.59;6218611;23;19995;-72
2023/06/15 09:23:51;;;;;;;;;;;;;;;-140.72;0.00;51735.50;6245855;23;20306;-72
2023/06/15 09:26:23;;;;;;;;;;;;;;;-140.72;0.00;51741.59;6245403;23;19911;-72
2023/06/15 09:28:49;;;;;;;;;;;;;;;-140.72;0.00;51723.34;6244757;23;19911;-72
2023/06/15 09:31:30;;;;;;;;;;;;;;;-140.72;0.00;51703.06;6218444;23;20347;-72
2023/06/15 09:34:03;;;;;;;;;;;;;;;-140.72;0.00;51690.88;6243550;23;19918;-71
2023/06/15 09:36:54;;;;;;;;;;;;;;;-140.72;0.00;51686.81;6243687;23;20304;-72
2023/06/15 09:39:22;;;;;;;;;;;;;;;-140.72;0.00;51656.38;6239215;23;19911;-71
2023/06/15 09:41:54;;;;;;;;;;;;;;;-140.72;0.00;51717.25;6246237;23;19943;-72
2023/06/15 09:44:21;;;;;;;;;;;;;;;-140.72;0.00;51668.56;6247152;23;19974;-72
2023/06/15 09:46:48;;;;;;;;;;;;;;;-140.72;0.00;51636.09;6221948;23;19923;-72
2023/06/15 09:49:21;;;;;;;;;;;;;;;-140.72;0.00;51619.88;6222331;23;19939;-72
2023/06/15 09:51:47;;;;;;;;;;;;;;;-140.72;0.00;51634.06;6249712;23;19916;-71
2023/06/15 09:54:13;;;;;;;;;;;;;;;-140.72;0.00;51648.28;6250461;23;19916;-72
2023/06/15 09:56:40;;;;;;;;;;;;;;;-140.72;0.00;51544.81;6246586;23;19918;-71
2023/06/15 09:59:06;;;;;;;;;;;;;;;-140.72;0.00;51579.28;6244437;23;19912;-71
2023/06/15 10:01:33;;;;;;;;;;;;;;;-140.72;0.00;51565.09;6243995;23;20307;-72
2023/06/15 10:03:58;;;;;;;;;;;;;;;-140.72;0.00;51524.53;6215647;23;20292;-72
2023/06/15 10:06:25;;;;;;;;;;;;;;;-140.72;0.00;51443.38;6243697;23;19942;-71
2023/06/15 10:08:52;;;;;;;;;;;;;;;-140.72;0.00;51526.56;6243955;23;19915;-71
2023/06/15 10:11:19;;;;;;;;;;;;;;;-140.72;0.00;51479.91;6245428;23;19990;-71
2023/06/15 10:13:48;;;;;;;;;;;;;;;-140.72;0.00;51563.06;6216921;23;20280;-71
2023/06/15 10:16:15;;;;;;;;;;;;;;;-140.72;0.00;51656.38;6243487;23;20033;-72
2023/06/15 10:18:42;;;;;;;;;;;;;;;-140.72;0.00;51680.72;6243441;23;20229;-71
2023/06/15 10:21:11;;;;;;;;;;;;;;;-140.72;0.00;51546.84;6216881;23;20346;-71
2023/06/15 10:23:40;;;;;;;;;;;;;;;-140.72;0.00;51577.28;6242906;23;20298;-72
2023/06/15 10:26:05;;;;;;;;;;;;;;;-140.72;0.00;51621.91;6217217;23;20011;-72
2023/06/15 10:28:32;;;;;;;;;;;;;;;-140.72;0.00;51745.66;6244768;23;20288;-71
2023/06/15 10:31:02;;;;;;;;;;;;;;;-140.72;0.00;51790.28;6217459;23;19915;-71
2023/06/15 10:33:31;;;;;;;;;;;;;;;-140.72;0.00;51674.66;6217692;23;19911;-71
2023/06/15 10:36:03;;;;;;;;;;;;;;;-140.72;0.00;51601.63;6244138;23;19911;-71
2023/06/15 10:38:28;;;;;;;;;;;;;;;-140.72;0.00;51567.13;6244989;23;20048;-71
2023/06/15 10:40:53;;;;;;;;;;;;;;;-140.72;0.00;51479.91;6244354;23;19946;-72
2023/06/15 10:43:19;;;;;;;;;;;;;;;-140.72;0.00;51414.97;6244837;23;19993;-71
2023/06/15 10:45:45;;;;;;;;;;;;;;;-140.72;0.00;51437.28;6244379;23;19912;-71
2023/06/15 10:48:19;;;;;;;;;;;;;;;-140.72;0.00;51390.63;6245017;23;19912;-71
2023/06/15 10:50:51;;;;;;;;;;;;;;;-140.72;0.00;51384.53;6244564;23;19922;-71
2023/06/15 10:53:23;;;;;;;;;;;;;;;-140.72;0.00;51433.22;6245499;23;19912;-71
2023/06/15 10:55:52;;;;;;;;;;;;;;;-140.72;0.00;51378.47;6219392;23;19912;-70
2023/06/15 10:58:17;;;;;;;;;;;;;;;-140.72;0.00;51362.22;6247870;23;19911;-70
2023/06/15 11:00:43;;;;;;;;;;;;;;;-140.72;0.00;51317.59;6246260;23;19922;-70
2023/06/15 11:03:25;;;;;;;;;;;;;;;-140.72;0.00;51372.38;6245757;23;19947;-70
2023/06/15 11:06:04;;;;;;;;;;;;;;;-140.72;0.00;51380.50;6245600;23;19922;-70
2023/06/15 11:08:30;;;;;;;;;;;;;;;-140.72;0.00;51307.47;6244168;23;20271;-70
2023/06/15 11:10:56;;;;;;;;;;;;;;;-140.72;0.00;51291.22;6244685;23;20270;-70
2023/06/15 11:13:25;;;;;;;;;;;;;;;-140.72;0.00;51270.94;6244526;23;19919;-70
2023/06/15 11:16:04;;;;;;;;;;;;;;;-140.72;0.00;51248.63;6217541;23;19912;-70
2023/06/15 11:18:30;;;;;;;;;;;;;;;-140.72;0.00;51285.16;6243964;23;19966;-71
2023/06/15 11:20:59;;;;;;;;;;;;;;;-140.72;0.00;51248.63;6245186;23;19919;-70
2023/06/15 11:23:25;;;;;;;;;;;;;;;-140.72;0.00;51232.41;6244538;23;19966;-70
2023/06/15 11:25:51;;;;;;;;;;;;;;;-140.72;0.00;51303.41;6244411;23;20347;-70
2023/06/15 11:28:31;;;;;;;;;;;;;;;-140.72;0.00;51222.25;6243970;23;19954;-71
2023/06/15 11:30:57;;;;;;;;;;;;;;;-140.72;0.00;51309.50;6244640;23;19912;-70
2023/06/15 11:33:27;;;;;;;;;;;;;;;-140.72;0.00;51319.63;6244439;23;19938;-71
2023/06/15 11:35:52;;;;;;;;;;;;;;;-140.72;0.00;51266.88;6244731;23;19912;-70
2023/06/15 11:38:17;;;;;;;;;;;;;;;-140.72;0.00;51246.59;6245466;23;19934;-70
2023/06/15 11:40:46;;;;;;;;;;;;;;;-140.72;0.00;51248.63;6217479;23;19920;-70
2023/06/15 11:43:12;;;;;;;;;;;;;;;-140.72;0.00;51230.38;6244456;23;19911;-70
2023/06/15 11:45:38;;;;;;;;;;;;;;;-140.72;0.00;51230.38;6243815;23;20343;-70
2023/06/15 11:48:12;;;;;;;;;;;;;;;-140.72;0.00;51339.91;6244381;23;19915;-70
2023/06/15 11:50:40;;;;;;;;;;;;;;;-140.72;0.00;51443.38;6243465;22;20250;-70
2023/06/15 11:53:05;;;;;;;;;;;;;;;-140.72;0.00;51577.28;6245533;23;19915;-70
2023/06/15 11:55:33;;;;;;;;;;;;;;;-140.72;0.00;51485.97;6245721;23;20010;-70
2023/06/15 11:57:58;;;;;;;;;;;;;;;-140.72;0.00;51467.72;6245781;23;20199;-70
2023/06/15 12:00:24;;;;;;;;;;;;;;;-140.72;0.00;51406.88;6244500;23;19947;-70
2023/06/15 12:02:50;;;;;;;;;;;;;;;-140.72;0.00;51348.03;6217495;23;20002;-71
2023/06/15 12:05:17;;;;;;;;;;;;;;;-140.72;0.00;51343.97;6244835;23;20043;-70
2023/06/15 12:07:42;;;;;;;;;;;;;;;-140.72;0.00;51287.19;6217649;23;19912;-70
2023/06/15 12:10:11;;;;;;;;;;;;;;;-140.72;0.00;51287.19;6243981;23;20342;-71
2023/06/15 12:12:36;;;;;;;;;;;;;;;-140.72;0.00;51289.19;6244623;23;20290;-70
2023/06/15 12:15:02;;;;;;;;;;;;;;;-140.72;0.00;51248.63;6243156;23;19942;-71
2023/06/15 12:17:31;;;;;;;;;;;;;;;-140.72;0.00;51260.81;6244021;23;19912;-70
2023/06/15 12:19:57;;;;;;;;;;;;;;;-140.72;0.00;51270.94;6243850;23;19915;-71
2023/06/15 12:22:31;;;;;;;;;;;;;;;-140.72;0.00;51234.44;6243975;23;19938;-70
2023/06/15 12:24:58;;;;;;;;;;;;;;;-140.72;0.00;51264.88;6244009;23;19915;-71
2023/06/15 12:27:24;;;;;;;;;;;;;;;-140.72;0.00;51252.69;6245025;23;20243;-71
2023/06/15 12:29:52;;;;;;;;;;;;;;;-140.72;0.00;51224.28;6244122;23;19966;-70